Time,TemperatureF,DewpointF,PressureIn,WindDirection,WindDirectionDegrees,WindSpeedMPH,WindSpeedGustMPH,Humidity,HourlyPrecipIn,Conditions,Clouds,dailyrainin,SoftwareType,DateUTC
2013-06-22 00:09:00,68.0,66.2,30.10,WSW,257,1.0,2.0,94,0.00,,,0.00,WUHU216DAVISVP2,2013-06-22 04:09:00,
2013-06-22 00:14:00,67.9,66.1,30.10,West,259,0.0,2.0,94,0.00,,,0.00,WUHU216DAVISVP2,2013-06-22 04:14:00,
2013-06-22 00:31:00,68.2,66.4,30.11,West,259,0.0,1.0,94,0.00,,,0.00,WUHU216DAVISVP2,2013-06-22 04:31:00,
2013-06-22 00:36:00,68.2,66.4,30.11,West,259,0.0,0.0,94,0.00,,,0.00,WUHU216DAVISVP2,2013-06-22 04:36:00,
2013-06-22 00:53:00,68.2,66.4,30.10,SE,126,0.0,0.0,94,0.00,,,0.00,WUHU216DAVISVP2,2013-06-22 04:53:00,
2013-06-22 00:58:00,68.1,66.3,30.10,SE,127,0.0,1.0,94,0.00,,,0.00,WUHU216DAVISVP2,2013-06-22 04:58:00,
2013-06-22 01:03:00,67.9,66.1,30.10,SE,127,0.0,1.0,94,0.00,,,0.00,WUHU216DAVISVP2,2013-06-22 05:03:00,
2013-06-22 01:15:00,67.5,66.0,30.10,SE,127,0.0,0.0,95,0.00,,,0.00,WUHU216DAVISVP2,2013-06-22 05:15:00,
2013-06-22 01:20:00,67.3,65.8,30.10,SE,127,0.0,1.0,95,0.00,,,0.00,WUHU216DAVISVP2,2013-06-22 05:20:00,
2013-06-22 01:25:00,67.3,65.8,30.10,SE,144,1.0,2.0,95,0.00,,,0.00,WUHU216DAVISVP2,2013-06-22 05:25:00,
2013-06-22 01:37:00,67.5,66.0,30.09,SSE,160,1.0,3.0,95,0.00,,,0.00,WUHU216DAVISVP2,2013-06-22 05:37:00,
2013-06-22 01:42:00,67.5,66.0,30.10,SSE,161,0.0,3.0,95,0.00,,,0.00,WUHU216DAVISVP2,2013-06-22 05:42:00,
2013-06-22 01:58:00,67.7,65.9,30.09,SSE,151,2.0,2.0,94,0.00,,,0.00,WUHU216DAVISVP2,2013-06-22 05:58:00,
2013-06-22 02:03:00,67.8,66.0,30.09,SSE,160,2.0,2.0,94,0.00,,,0.00,WUHU216DAVISVP2,2013-06-22 06:03:00,
2013-06-22 02:08:00,67.9,66.1,30.08,SSE,148,1.0,3.0,94,0.00,,,0.00,WUHU216DAVISVP2,2013-06-22 06:08:00,
2013-06-22 02:20:00,67.9,66.1,30.07,SSE,153,2.0,3.0,94,0.00,,,0.00,WUHU216DAVISVP2,2013-06-22 06:20:00,
2013-06-22 02:25:00,67.9,65.8,30.07,SSE,155,2.0,3.0,93,0.00,,,0.00,WUHU216DAVISVP2,2013-06-22 06:25:00,
2013-06-22 02:42:00,68.5,66.1,30.06,South,179,3.0,6.0,92,0.00,,,0.00,WUHU216DAVISVP2,2013-06-22 06:42:00,
2013-06-22 02:47:00,68.6,66.2,30.06,South,185,4.0,6.0,92,0.00,,,0.00,WUHU216DAVISVP2,2013-06-22 06:47:00,
2013-06-22 02:52:00,68.8,66.4,30.06,South,180,3.0,8.0,92,0.00,,,0.00,WUHU216DAVISVP2,2013-06-22 06:52:00,
2013-06-22 03:04:00,69.1,66.3,30.05,South,191,2.0,8.0,91,0.00,,,0.00,WUHU216DAVISVP2,2013-06-22 07:04:00,
2013-06-22 03:09:00,69.1,66.3,30.05,SSW,200,2.0,6.0,91,0.00,,,0.00,WUHU216DAVISVP2,2013-06-22 07:09:00,
2013-06-22 03:26:00,69.0,66.3,30.04,SSE,154,4.0,7.0,91,0.00,,,0.00,WUHU216DAVISVP2,2013-06-22 07:26:00,
2013-06-22 03:31:00,69.1,66.3,30.04,SSE,155,3.0,7.0,91,0.00,,,0.00,WUHU216DAVISVP2,2013-06-22 07:31:00,
2013-06-22 03:48:00,69.4,66.3,30.04,SE,139,4.0,8.0,90,0.00,,,0.00,WUHU216DAVISVP2,2013-06-22 07:48:00,
2013-06-22 03:53:00,69.5,66.4,30.04,SE,145,3.0,8.0,90,0.00,,,0.00,WUHU216DAVISVP2,2013-06-22 07:53:00,
2013-06-22 03:58:00,69.4,66.3,30.04,SSE,161,4.0,7.0,90,0.00,,,0.00,WUHU216DAVISVP2,2013-06-22 07:58:00,
2013-06-22 04:10:00,69.5,66.4,30.04,South,169,6.0,9.0,90,0.00,,,0.00,WUHU216DAVISVP2,2013-06-22 08:10:00,
2013-06-22 04:15:00,69.4,66.3,30.04,SSE,154,6.0,9.0,90,0.00,,,0.00,WUHU216DAVISVP2,2013-06-22 08:15:00,
2013-06-22 04:20:00,69.4,66.3,30.04,South,169,4.0,9.0,90,0.00,,,0.00,WUHU216DAVISVP2,2013-06-22 08:20:00,
2013-06-22 04:32:00,69.4,66.3,30.03,SSE,158,3.0,8.0,90,0.00,,,0.00,WUHU216DAVISVP2,2013-06-22 08:32:00,
2013-06-22 04:37:00,69.4,66.0,30.03,SSE,164,4.0,8.0,89,0.00,,,0.00,WUHU216DAVISVP2,2013-06-22 08:37:00,
2013-06-22 04:42:00,69.4,66.0,30.03,SSE,148,4.0,8.0,89,0.00,,,0.00,WUHU216DAVISVP2,2013-06-22 08:42:00,
2013-06-22 04:54:00,69.7,66.3,30.03,SE,144,5.0,8.0,89,0.00,,,0.00,WUHU216DAVISVP2,2013-06-22 08:54:00,
2013-06-22 04:59:00,69.8,66.4,30.03,SSE,158,2.0,8.0,89,0.00,,,0.00,WUHU216DAVISVP2,2013-06-22 08:59:00,
2013-06-22 05:04:00,69.9,66.5,30.04,SSW,192,4.0,8.0,89,0.00,,,0.00,WUHU216DAVISVP2,2013-06-22 09:04:00,
2013-06-22 05:16:00,69.9,66.2,30.05,SSE,160,2.0,7.0,88,0.00,,,0.00,WUHU216DAVISVP2,2013-06-22 09:16:00,
2013-06-22 05:21:00,69.9,66.5,30.05,SSW,193,2.0,6.0,89,0.00,,,0.00,WUHU216DAVISVP2,2013-06-22 09:21:00,
2013-06-22 05:26:00,69.7,66.3,30.05,South,185,1.0,5.0,89,0.00,,,0.00,WUHU216DAVISVP2,2013-06-22 09:26:00,
2013-06-22 05:38:00,69.6,66.2,30.05,SSE,160,2.0,4.0,89,0.00,,,0.00,WUHU216DAVISVP2,2013-06-22 09:38:00,
2013-06-22 05:43:00,69.6,66.5,30.05,South,172,2.0,6.0,90,0.00,,,0.00,WUHU216DAVISVP2,2013-06-22 09:43:00,
2013-06-22 05:59:00,69.9,66.8,30.05,SSE,157,2.0,6.0,90,0.00,,,0.00,WUHU216DAVISVP2,2013-06-22 09:59:00,
2013-06-22 06:04:00,69.9,67.1,30.05,South,185,2.0,6.0,91,0.00,,,0.00,WUHU216DAVISVP2,2013-06-22 10:04:00,
2013-06-22 06:09:00,69.9,67.1,30.06,SSW,204,2.0,6.0,91,0.00,,,0.00,WUHU216DAVISVP2,2013-06-22 10:09:00,
2013-06-22 06:21:00,69.9,67.1,30.06,SSW,195,2.0,7.0,91,0.00,,,0.00,WUHU216DAVISVP2,2013-06-22 10:21:00,
2013-06-22 06:26:00,70.0,67.2,30.05,SSW,197,3.0,7.0,91,0.00,,,0.00,WUHU216DAVISVP2,2013-06-22 10:26:00,
2013-06-22 06:31:00,70.1,67.3,30.05,SSW,207,5.0,7.0,91,0.00,,,0.00,WUHU216DAVISVP2,2013-06-22 10:31:00,
2013-06-22 06:43:00,71.0,68.2,30.05,SSW,204,5.0,12.0,91,0.00,,,0.00,WUHU216DAVISVP2,2013-06-22 10:43:00,
2013-06-22 06:48:00,71.5,68.7,30.05,South,189,9.0,12.0,91,0.00,,,0.00,WUHU216DAVISVP2,2013-06-22 10:48:00,
2013-06-22 07:05:00,72.4,69.0,30.05,South,179,5.0,12.0,89,0.00,,,0.00,WUHU216DAVISVP2,2013-06-22 11:05:00,
2013-06-22 07:10:00,72.4,69.0,30.05,South,177,4.0,12.0,89,0.00,,,0.00,WUHU216DAVISVP2,2013-06-22 11:10:00,
2013-06-22 07:15:00,72.6,69.2,30.05,SW,222,8.0,12.0,89,0.00,,,0.00,WUHU216DAVISVP2,2013-06-22 11:15:00,
2013-06-22 07:27:00,73.0,69.2,30.06,SW,225,6.0,12.0,88,0.00,,,0.00,WUHU216DAVISVP2,2013-06-22 11:27:00,
2013-06-22 07:32:00,72.9,69.5,30.07,SSW,211,5.0,12.0,89,0.00,,,0.00,WUHU216DAVISVP2,2013-06-22 11:32:00,
2013-06-22 07:37:00,72.9,69.5,30.07,SW,221,4.0,10.0,89,0.00,,,0.00,WUHU216DAVISVP2,2013-06-22 11:37:00,
2013-06-22 07:49:00,73.2,69.8,30.07,SW,214,4.0,7.0,89,0.00,,,0.00,WUHU216DAVISVP2,2013-06-22 11:49:00,
2013-06-22 07:54:00,73.2,69.8,30.07,SW,218,4.0,7.0,89,0.00,,,0.00,WUHU216DAVISVP2,2013-06-22 11:54:00,
2013-06-22 07:59:00,73.3,69.9,30.08,SSW,204,4.0,7.0,89,0.00,,,0.00,WUHU216DAVISVP2,2013-06-22 11:59:00,
2013-06-22 08:11:00,73.6,70.2,30.08,SW,226,3.0,6.0,89,0.00,,,0.00,WUHU216DAVISVP2,2013-06-22 12:11:00,
2013-06-22 08:16:00,73.7,69.9,30.08,SSW,199,3.0,7.0,88,0.00,,,0.00,WUHU216DAVISVP2,2013-06-22 12:16:00,
2013-06-22 08:21:00,73.9,70.1,30.08,South,187,5.0,7.0,88,0.00,,,0.00,WUHU216DAVISVP2,2013-06-22 12:21:00,
2013-06-22 08:33:00,74.3,70.5,30.08,South,172,6.0,10.0,88,0.00,,,0.00,WUHU216DAVISVP2,2013-06-22 12:33:00,
2013-06-22 08:38:00,74.5,70.4,30.08,SSW,201,4.0,10.0,87,0.00,,,0.00,WUHU216DAVISVP2,2013-06-22 12:38:00,
2013-06-22 08:55:00,75.2,71.1,30.08,SSW,212,3.0,10.0,87,0.00,,,0.00,WUHU216DAVISVP2,2013-06-22 12:55:00,
2013-06-22 09:00:00,75.4,71.3,30.09,SW,219,4.0,10.0,87,0.00,,,0.00,WUHU216DAVISVP2,2013-06-22 13:00:00,
2013-06-22 09:05:00,75.7,71.2,30.09,SW,224,6.0,10.0,86,0.00,,,0.00,WUHU216DAVISVP2,2013-06-22 13:05:00,
2013-06-22 09:16:00,76.2,71.7,30.09,WSW,248,6.0,10.0,86,0.00,,,0.00,WUHU216DAVISVP2,2013-06-22 13:16:00,
2013-06-22 09:21:00,76.3,71.8,30.09,West,259,5.0,10.0,86,0.00,,,0.00,WUHU216DAVISVP2,2013-06-22 13:21:00,
2013-06-22 09:26:00,76.6,71.8,30.09,SW,214,7.0,10.0,85,0.00,,,0.00,WUHU216DAVISVP2,2013-06-22 13:26:00,
2013-06-22 09:38:00,77.3,72.1,30.10,WSW,246,7.0,10.0,84,0.00,,,0.00,WUHU216DAVISVP2,2013-06-22 13:38:00,
2013-06-22 09:43:00,77.7,72.5,30.09,WSW,240,6.0,10.0,84,0.00,,,0.00,WUHU216DAVISVP2,2013-06-22 13:43:00,
2013-06-22 09:48:00,78.0,72.1,30.09,SW,228,11.0,12.0,82,0.00,,,0.00,WUHU216DAVISVP2,2013-06-22 13:48:00,
2013-06-22 10:00:00,77.9,72.3,30.09,WSW,243,5.0,13.0,83,0.00,,,0.00,WUHU216DAVISVP2,2013-06-22 14:00:00,
2013-06-22 10:05:00,77.9,72.4,30.09,SW,217,8.0,12.0,83,0.00,,,0.00,WUHU216DAVISVP2,2013-06-22 14:05:00,
2013-06-22 10:10:00,77.9,72.0,30.09,SW,225,5.0,12.0,82,0.00,,,0.00,WUHU216DAVISVP2,2013-06-22 14:10:00,
2013-06-22 10:22:00,78.7,72.8,30.08,WSW,245,7.0,11.0,82,0.00,,,0.00,WUHU216DAVISVP2,2013-06-22 14:22:00,
2013-06-22 10:27:00,79.0,72.4,30.08,WSW,240,8.0,12.0,80,0.00,,,0.00,WUHU216DAVISVP2,2013-06-22 14:27:00,
2013-06-22 10:32:00,79.0,72.8,30.08,WSW,240,7.0,13.0,81,0.00,,,0.00,WUHU216DAVISVP2,2013-06-22 14:32:00,
2013-06-22 10:44:00,79.6,73.0,30.08,SW,224,7.0,12.0,80,0.00,,,0.00,WUHU216DAVISVP2,2013-06-22 14:44:00,
2013-06-22 10:49:00,79.6,73.4,30.08,SW,228,7.0,12.0,81,0.00,,,0.00,WUHU216DAVISVP2,2013-06-22 14:49:00,
2013-06-22 11:06:00,80.2,73.6,30.09,West,271,5.0,13.0,80,0.00,,,0.00,WUHU216DAVISVP2,2013-06-22 15:06:00,
2013-06-22 11:11:00,80.5,74.2,30.09,SW,226,6.0,13.0,81,0.00,,,0.00,WUHU216DAVISVP2,2013-06-22 15:11:00,
2013-06-22 11:28:00,82.0,74.6,30.09,SSW,207,7.0,12.0,78,0.00,,,0.00,WUHU216DAVISVP2,2013-06-22 15:28:00,
2013-06-22 11:33:00,82.5,74.3,30.09,SW,231,11.0,14.0,76,0.00,,,0.00,WUHU216DAVISVP2,2013-06-22 15:33:00,
2013-06-22 11:50:00,82.1,74.3,30.09,West,280,6.0,14.0,77,0.00,,,0.00,WUHU216DAVISVP2,2013-06-22 15:50:00,
2013-06-22 11:55:00,82.2,74.4,30.09,SW,221,8.0,14.0,77,0.00,,,0.00,WUHU216DAVISVP2,2013-06-22 15:55:00,
2013-06-22 12:00:00,82.5,74.3,30.09,South,190,7.0,14.0,76,0.00,,,0.00,WUHU216DAVISVP2,2013-06-22 16:00:00,
2013-06-22 12:12:00,82.9,74.3,30.08,WSW,238,8.0,13.0,75,0.00,,,0.00,WUHU216DAVISVP2,2013-06-22 16:12:00,
2013-06-22 12:17:00,83.2,75.4,30.08,SW,236,8.0,13.0,77,0.00,,,0.00,WUHU216DAVISVP2,2013-06-22 16:17:00,
2013-06-22 12:22:00,83.2,75.0,30.08,SW,228,8.0,12.0,76,0.00,,,0.00,WUHU216DAVISVP2,2013-06-22 16:22:00,
2013-06-22 12:34:00,83.4,74.4,30.08,SW,218,9.0,13.0,74,0.00,,,0.00,WUHU216DAVISVP2,2013-06-22 16:34:00,
2013-06-22 12:39:00,83.6,75.0,30.07,WSW,238,7.0,12.0,75,0.00,,,0.00,WUHU216DAVISVP2,2013-06-22 16:39:00,
2013-06-22 12:56:00,84.0,75.4,30.07,South,176,7.0,11.0,75,0.00,,,0.00,WUHU216DAVISVP2,2013-06-22 16:56:00,
2013-06-22 13:01:00,84.0,75.8,30.07,SSE,162,4.0,11.0,76,0.00,,,0.00,WUHU216DAVISVP2,2013-06-22 17:01:00,
2013-06-22 13:05:00,84.0,75.0,30.07,SW,233,7.0,11.0,74,0.00,,,0.00,WUHU216DAVISVP2,2013-06-22 17:05:00,
2013-06-22 13:17:00,84.4,75.8,30.07,South,190,6.0,11.0,75,0.00,,,0.00,WUHU216DAVISVP2,2013-06-22 17:17:00,
2013-06-22 13:22:00,84.4,75.4,30.07,SSW,201,5.0,11.0,74,0.00,,,0.00,WUHU216DAVISVP2,2013-06-22 17:22:00,
2013-06-22 13:27:00,84.5,75.5,30.07,SW,217,5.0,11.0,74,0.00,,,0.00,WUHU216DAVISVP2,2013-06-22 17:27:00,
2013-06-22 13:39:00,85.1,75.7,30.06,SSW,207,8.0,11.0,73,0.00,,,0.00,WUHU216DAVISVP2,2013-06-22 17:39:00,
2013-06-22 13:44:00,85.1,76.5,30.05,SSW,208,8.0,11.0,75,0.00,,,0.00,WUHU216DAVISVP2,2013-06-22 17:44:00,
2013-06-22 13:49:00,85.4,76.8,30.06,SSE,161,4.0,11.0,75,0.00,,,0.00,WUHU216DAVISVP2,2013-06-22 17:49:00,
2013-06-22 14:01:00,85.2,75.8,30.06,SSW,201,5.0,9.0,73,0.00,,,0.00,WUHU216DAVISVP2,2013-06-22 18:01:00,
2013-06-22 14:06:00,84.9,76.3,30.07,SSW,210,8.0,11.0,75,0.00,,,0.00,WUHU216DAVISVP2,2013-06-22 18:06:00,
2013-06-22 14:23:00,84.6,76.0,30.07,SW,236,6.0,12.0,75,0.00,,,0.00,WUHU216DAVISVP2,2013-06-22 18:23:00,
2013-06-22 14:28:00,84.7,76.1,30.07,SW,225,7.0,12.0,75,0.00,,,0.00,WUHU216DAVISVP2,2013-06-22 18:28:00,
2013-06-22 14:33:00,84.8,76.2,30.07,WSW,256,8.0,13.0,75,0.00,,,0.00,WUHU216DAVISVP2,2013-06-22 18:33:00,
2013-06-22 14:45:00,85.3,77.8,30.05,SSW,205,3.0,12.0,78,0.00,,,0.00,WUHU216DAVISVP2,2013-06-22 18:45:00,
2013-06-22 14:50:00,86.1,77.1,30.05,WSW,240,7.0,12.0,74,0.00,,,0.00,WUHU216DAVISVP2,2013-06-22 18:50:00,
2013-06-22 15:07:00,86.5,77.0,30.05,SW,224,9.0,11.0,73,0.00,,,0.00,WUHU216DAVISVP2,2013-06-22 19:07:00,
2013-06-22 15:12:00,85.3,75.9,30.04,South,187,2.0,17.0,73,0.00,,,0.00,WUHU216DAVISVP2,2013-06-22 19:12:00,
2013-06-22 15:29:00,82.6,73.5,30.05,SSW,212,10.0,12.0,74,0.00,,,0.00,WUHU216DAVISVP2,2013-06-22 19:29:00,
2013-06-22 15:34:00,81.0,71.1,30.04,SW,219,10.0,14.0,72,0.00,,,0.00,WUHU216DAVISVP2,2013-06-22 19:34:00,
2013-06-22 15:39:00,79.8,70.0,30.04,SSW,212,9.0,15.0,72,0.00,,,0.00,WUHU216DAVISVP2,2013-06-22 19:39:00,
2013-06-22 15:51:00,77.1,70.1,30.05,SSE,159,5.0,15.0,79,0.00,,,0.00,WUHU216DAVISVP2,2013-06-22 19:51:00,
2013-06-22 15:56:00,76.2,69.2,30.05,SSE,151,6.0,15.0,79,0.00,,,0.00,WUHU216DAVISVP2,2013-06-22 19:56:00,
2013-06-22 16:13:00,74.7,68.9,30.02,WSW,238,2.0,9.0,82,0.00,,,0.00,WUHU216DAVISVP2,2013-06-22 20:13:00,
2013-06-22 16:18:00,74.5,69.1,30.03,WSW,255,2.0,5.0,83,0.00,,,0.00,WUHU216DAVISVP2,2013-06-22 20:18:00,
2013-06-22 16:34:00,73.8,69.0,30.01,SW,228,2.0,7.0,85,0.00,,,0.00,WUHU216DAVISVP2,2013-06-22 20:34:00,
2013-06-22 16:39:00,73.7,68.9,30.01,SSE,165,3.0,7.0,85,0.00,,,0.00,WUHU216DAVISVP2,2013-06-22 20:39:00,
2013-06-22 16:44:00,73.8,69.0,30.01,SSE,148,3.0,6.0,85,0.00,,,0.00,WUHU216DAVISVP2,2013-06-22 20:44:00,
2013-06-22 16:56:00,74.0,68.9,30.01,ESE,122,4.0,5.0,84,0.00,,,0.00,WUHU216DAVISVP2,2013-06-22 20:56:00,
2013-06-22 17:01:00,74.0,68.9,30.01,SE,133,1.0,5.0,84,0.00,,,0.00,WUHU216DAVISVP2,2013-06-22 21:01:00,
2013-06-22 17:18:00,74.2,68.4,30.01,SE,131,3.0,7.0,82,0.00,,,0.00,WUHU216DAVISVP2,2013-06-22 21:18:00,
2013-06-22 17:23:00,74.2,68.4,30.00,SE,141,5.0,7.0,82,0.00,,,0.00,WUHU216DAVISVP2,2013-06-22 21:23:00,
2013-06-22 17:28:00,74.0,68.2,30.00,SSE,165,6.0,8.0,82,0.00,,,0.00,WUHU216DAVISVP2,2013-06-22 21:28:00,
2013-06-22 17:40:00,73.8,67.3,29.98,ESE,117,5.0,10.0,80,0.00,,,0.00,WUHU216DAVISVP2,2013-06-22 21:40:00,
2013-06-22 17:45:00,73.8,67.3,29.98,SSE,167,4.0,10.0,80,0.00,,,0.00,WUHU216DAVISVP2,2013-06-22 21:45:00,
2013-06-22 18:02:00,73.9,68.1,29.99,SE,141,2.0,5.0,82,0.00,,,0.00,WUHU216DAVISVP2,2013-06-22 22:02:00,
2013-06-22 18:07:00,74.0,68.2,29.99,SSE,148,0.0,3.0,82,0.00,,,0.00,WUHU216DAVISVP2,2013-06-22 22:07:00,
2013-06-22 18:12:00,74.1,68.3,29.99,SE,134,1.0,2.0,82,0.00,,,0.00,WUHU216DAVISVP2,2013-06-22 22:12:00,
2013-06-22 18:24:00,74.4,69.0,29.99,SE,144,3.0,6.0,83,0.00,,,0.00,WUHU216DAVISVP2,2013-06-22 22:24:00,
2013-06-22 18:29:00,74.6,69.2,29.99,SE,146,3.0,6.0,83,0.00,,,0.00,WUHU216DAVISVP2,2013-06-22 22:29:00,
2013-06-22 18:34:00,74.8,69.7,29.99,ESE,112,3.0,6.0,84,0.00,,,0.00,WUHU216DAVISVP2,2013-06-22 22:34:00,
2013-06-22 18:46:00,75.3,69.8,30.01,SE,124,2.0,6.0,83,0.00,,,0.00,WUHU216DAVISVP2,2013-06-22 22:46:00,
2013-06-22 18:51:00,75.5,70.0,30.01,ESE,108,0.0,4.0,83,0.00,,,0.00,WUHU216DAVISVP2,2013-06-22 22:51:00,
2013-06-22 19:08:00,76.6,71.1,30.02,SW,231,1.0,3.0,83,0.00,,,0.00,WUHU216DAVISVP2,2013-06-22 23:08:00,
2013-06-22 19:13:00,76.6,71.5,30.02,SSW,209,2.0,6.0,84,0.00,,,0.00,WUHU216DAVISVP2,2013-06-22 23:13:00,
2013-06-22 19:30:00,76.2,71.1,30.03,SSW,199,5.0,7.0,84,0.00,,,0.00,WUHU216DAVISVP2,2013-06-22 23:30:00,
2013-06-22 19:35:00,76.1,71.0,30.03,SSW,205,2.0,7.0,84,0.00,,,0.00,WUHU216DAVISVP2,2013-06-22 23:35:00,
2013-06-22 19:52:00,75.9,70.8,30.03,SSE,155,2.0,5.0,84,0.00,,,0.00,WUHU216DAVISVP2,2013-06-22 23:52:00,
2013-06-22 19:57:00,75.7,70.9,30.02,SSE,160,3.0,5.0,85,0.00,,,0.00,WUHU216DAVISVP2,2013-06-22 23:57:00,
2013-06-22 20:02:00,75.6,70.8,30.02,SSW,204,2.0,5.0,85,0.00,,,0.00,WUHU216DAVISVP2,2013-06-23 00:02:00,
2013-06-22 20:13:00,75.4,70.9,30.02,SW,233,2.0,5.0,86,0.00,,,0.00,WUHU216DAVISVP2,2013-06-23 00:13:00,
2013-06-22 20:18:00,75.2,70.8,30.02,SSW,210,3.0,4.0,86,0.00,,,0.00,WUHU216DAVISVP2,2013-06-23 00:18:00,
2013-06-22 20:35:00,74.9,70.8,30.02,SSW,207,4.0,4.0,87,0.00,,,0.00,WUHU216DAVISVP2,2013-06-23 00:35:00,
2013-06-22 20:40:00,74.9,71.1,30.02,South,172,3.0,5.0,88,0.00,,,0.00,WUHU216DAVISVP2,2013-06-23 00:40:00,
2013-06-22 20:57:00,74.8,71.0,30.02,South,190,4.0,6.0,88,0.00,,,0.00,WUHU216DAVISVP2,2013-06-23 00:57:00,
2013-06-22 21:02:00,74.8,71.3,30.02,SSW,195,3.0,6.0,89,0.00,,,0.00,WUHU216DAVISVP2,2013-06-23 01:02:00,
2013-06-22 21:07:00,74.8,71.3,30.02,SSW,200,2.0,6.0,89,0.00,,,0.00,WUHU216DAVISVP2,2013-06-23 01:07:00,
2013-06-22 21:19:00,74.9,71.1,30.02,SW,217,2.0,7.0,88,0.00,,,0.00,WUHU216DAVISVP2,2013-06-23 01:19:00,
2013-06-22 21:24:00,74.9,71.1,30.03,SW,219,4.0,7.0,88,0.00,,,0.00,WUHU216DAVISVP2,2013-06-23 01:24:00,
2013-06-22 21:41:00,74.8,71.0,30.03,SW,233,5.0,7.0,88,0.00,,,0.00,WUHU216DAVISVP2,2013-06-23 01:41:00,
2013-06-22 21:46:00,74.7,70.9,30.04,SW,225,3.0,7.0,88,0.00,,,0.00,WUHU216DAVISVP2,2013-06-23 01:46:00,
2013-06-22 22:03:00,74.5,70.4,30.04,SW,227,3.0,7.0,87,0.00,,,0.00,WUHU216DAVISVP2,2013-06-23 02:03:00,
2013-06-22 22:08:00,74.3,70.2,30.04,SW,228,2.0,7.0,87,0.00,,,0.00,WUHU216DAVISVP2,2013-06-23 02:08:00,
2013-06-22 22:13:00,73.9,70.1,30.04,SW,224,2.0,7.0,88,0.00,,,0.00,WUHU216DAVISVP2,2013-06-23 02:13:00,
2013-06-22 22:25:00,73.2,69.4,30.05,South,177,1.0,5.0,88,0.00,,,0.00,WUHU216DAVISVP2,2013-06-23 02:25:00,
2013-06-22 22:30:00,73.1,69.3,30.05,SSW,198,2.0,5.0,88,0.00,,,0.00,WUHU216DAVISVP2,2013-06-23 02:30:00,
2013-06-22 22:35:00,72.9,69.1,30.05,SW,225,3.0,4.0,88,0.00,,,0.00,WUHU216DAVISVP2,2013-06-23 02:35:00,
2013-06-22 22:47:00,72.0,68.6,30.05,SW,221,1.0,4.0,89,0.00,,,0.00,WUHU216DAVISVP2,2013-06-23 02:47:00,
2013-06-22 22:52:00,71.7,68.6,30.06,SW,221,0.0,4.0,90,0.00,,,0.00,WUHU216DAVISVP2,2013-06-23 02:52:00,
2013-06-22 23:09:00,71.0,67.9,30.06,South,187,0.0,3.0,90,0.00,,,0.00,WUHU216DAVISVP2,2013-06-23 03:09:00,
2013-06-22 23:14:00,70.9,67.8,30.06,SSE,155,0.0,2.0,90,0.00,,,0.00,WUHU216DAVISVP2,2013-06-23 03:14:00,
2013-06-22 23:31:00,70.5,67.4,30.06,SSW,204,2.0,3.0,90,0.00,,,0.00,WUHU216DAVISVP2,2013-06-23 03:31:00,
2013-06-22 23:36:00,70.4,67.0,30.06,SSW,193,3.0,4.0,89,0.00,,,0.00,WUHU216DAVISVP2,2013-06-23 03:36:00,
2013-06-22 23:41:00,70.4,67.0,30.06,SSW,211,2.0,4.0,89,0.00,,,0.00,WUHU216DAVISVP2,2013-06-23 03:41:00,
2013-06-22 23:52:00,70.1,66.4,30.07,WSW,240,0.0,4.0,88,0.00,,,0.00,WUHU216DAVISVP2,2013-06-23 03:52:00,
2013-06-22 23:57:00,70.1,66.4,30.06,WSW,257,1.0,3.0,88,0.00,,,0.00,WUHU216DAVISVP2,2013-06-23 03:57:00,